Latest Weather Observations for Perth

IDW60901

Issued at 1:01 pm WST Tuesday 24 January 2017 (issued every 10 minutes, with the page automatically refreshed every 10 minutes)

About weather observations | Map of Perth area stations | Latest observations for Perth area | Other Formats
Station Details ID: 009225 Name: PERTH METRO Lat: -31.92 Lon: 115.87 Height: 24.9 m
Data from the previous 72 hours. | See also: Recent months at Perth
Date/Time
WST
Temp
°C
App
Temp
°C
Dew
Point
°C
Rel
Hum
%
Delta-T
°C
Wind Press
QNH
hPa
Press
MSL
hPa
Rain since
9am
mm
Dir  Spd
km/h
Gust
km/h
Spd
kts
Gust
kts
24/01:00pm 30.9 29.0 9.2 26 12.2 ESE 9 15 5 8 1016.1 1015.9 0.0
24/12:30pm 29.8 27.7 8.2 26 11.9 S 9 19 5 10 1016.5 1016.3 0.0
24/12:00pm 29.1 27.0 9.8 30 10.8 SSE 11 24 6 13 1016.8 1016.6 0.0
24/11:30am 28.5 26.3 9.2 30 10.7 E 11 20 6 11 1017.3 1017.1 0.0
24/11:00am 27.5 25.4 9.8 33 9.8 ESE 11 24 6 13 1017.5 1017.3 0.0
24/10:30am 26.7 25.0 10.0 35 9.3 E 9 20 5 11 1017.7 1017.5 0.0
24/10:00am 25.3 23.5 10.7 40 8.2 ESE 11 19 6 10 1018.0 1017.8 0.0
24/09:30am 23.7 21.5 10.7 44 7.2 ESE 13 22 7 12 1018.0 1017.8 0.0
24/09:00am 22.4 19.8 9.2 43 7.1 E 13 22 7 12 1018.2 1018.0 0.0
24/08:30am 20.9 18.5 10.1 50 5.8 E 13 22 7 12 1018.5 1018.3 0.0
24/08:00am 19.2 16.1 8.8 51 5.4 E 15 24 8 13 1018.7 1018.5 0.0
24/07:30am 18.6 16.3 9.1 54 5.0 E 11 20 6 11 1018.8 1018.6 0.0
24/07:00am 17.3 14.9 8.7 57 4.4 E 11 28 6 15 1018.6 1018.4 0.0
24/06:30am 16.5 13.7 8.7 60 4.0 E 13 22 7 12 1018.3 1018.1 0.0
24/06:00am 15.8 13.4 8.5 62 3.7 E 11 24 6 13 1017.8 1017.6 0.0
24/05:30am 15.4 13.9 9.1 66 3.2 E 7 15 4 8 1017.6 1017.4 0.0
24/05:00am 16.0 14.1 9.2 64 3.5 E 9 24 5 13 1017.4 1017.2 0.0
24/04:30am 16.5 14.1 8.5 59 4.1 E 11 19 6 10 1017.4 1017.2 0.0
24/04:00am 16.8 14.8 8.5 58 4.2 ESE 9 19 5 10 1017.3 1017.1 0.0
24/03:30am 16.9 14.9 8.6 58 4.3 ESE 9 22 5 12 1017.1 1016.9 0.0
24/03:00am 13.7 13.6 9.6 76 2.1 CALM 0 0 0 0 1016.9 1016.7 0.0
24/02:30am 14.4 13.5 9.2 71 2.7 SSE 4 7 2 4 1016.9 1016.7 0.0
24/02:00am 15.3 13.9 9.0 66 3.2 SSE 6 9 3 5 1016.9 1016.7 0.0
24/01:30am 15.7 13.9 9.6 67 3.2 SSE 9 15 5 8 1017.0 1016.8 0.0
24/01:00am 16.1 14.4 9.8 66 3.3 SSE 9 13 5 7 1017.1 1016.9 0.0
24/12:30am 16.7 15.1 10.3 66 3.4 S 9 17 5 9 1017.2 1017.0 0.0
24/12:00am 17.2 15.3 10.6 65 3.5 S 11 20 6 11 1017.3 1017.1 0.0
 
Date/Time
WST
Temp
°C
App
Temp
°C
Dew
Point
°C
Rel
Hum
%
Delta-T
°C
Wind Press
QNH
hPa
Press
MSL
hPa
Rain since
9am
mm
Dir  Spd
km/h
Gust
km/h
Spd
kts
Gust
kts
23/11:30pm 17.3 16.2 12.0 71 2.9 S 9 15 5 8 1017.4 1017.2 0.0
23/11:00pm 17.5 16.4 12.0 70 3.0 SSE 9 11 5 6 1017.7 1017.5 0.0
23/10:30pm 17.9 16.8 11.9 68 3.3 S 9 13 5 7 1017.6 1017.4 0.0
23/10:00pm 18.2 17.1 12.0 67 3.4 S 9 17 5 9 1017.7 1017.5 0.0
23/09:30pm 18.3 16.9 12.3 68 3.3 S 11 19 6 10 1017.7 1017.5 0.0
23/09:00pm 18.6 16.0 12.1 66 3.6 SSW 17 28 9 15 1017.4 1017.2 0.0
23/08:30pm 18.7 16.5 12.0 65 3.7 SSW 15 28 8 15 1017.2 1017.0 0.0
23/08:00pm 19.0 16.4 12.0 64 3.9 SSW 17 26 9 14 1017.0 1016.8 0.0
23/07:30pm 19.3 16.5 11.3 60 4.4 SSW 17 28 9 15 1016.7 1016.5 0.0
23/07:00pm 19.7 16.9 11.5 59 4.5 SW 17 28 9 15 1016.4 1016.2 0.0
23/06:30pm 20.4 17.1 11.6 57 4.9 SW 20 37 11 20 1016.0 1015.8 0.0
23/06:00pm 21.4 18.2 11.1 52 5.7 SW 19 30 10 16 1015.8 1015.6 0.0
23/05:30pm 21.7 17.9 11.1 51 5.9 SW 22 37 12 20 1015.5 1015.3 0.0
23/05:00pm 22.0 18.0 10.5 48 6.3 SW 22 35 12 19 1015.5 1015.3 0.0
23/04:30pm 22.5 19.0 10.9 48 6.4 SW 20 37 11 20 1015.5 1015.3 0.0
23/04:00pm 23.1 19.3 11.2 47 6.6 SW 22 39 12 21 1015.4 1015.2 0.0
23/03:30pm 22.9 19.2 11.6 49 6.3 SW 22 33 12 18 1015.6 1015.4 0.0
23/03:00pm 23.4 19.9 10.8 45 7.0 SW 20 37 11 20 1015.7 1015.5 0.0
23/02:30pm 23.7 20.0 11.4 46 6.9 SW 22 35 12 19 1015.8 1015.6 0.0
23/02:00pm 23.6 19.8 11.3 46 6.9 SW 22 37 12 20 1015.9 1015.7 0.0
23/01:30pm 24.2 20.5 11.5 45 7.2 SW 22 33 12 18 1016.1 1015.9 0.0
23/01:00pm 24.6 21.7 12.2 46 7.1 SW 19 33 10 18 1016.1 1015.9 0.0
23/12:30pm 23.8 21.6 12.1 48 6.7 SSW 15 28 8 15 1016.2 1016.0 0.0
23/12:00pm 24.0 21.0 12.0 47 6.8 SW 19 33 10 18 1016.5 1016.3 0.0
23/11:30am 22.6 19.6 10.7 47 6.6 SW 17 28 9 15 1016.7 1016.5 0.0
23/11:00am 21.9 19.4 11.0 50 6.0 SW 15 30 8 16 1016.9 1016.7 0.0
23/10:30am 21.4 19.2 10.9 51 5.8 SW 13 24 7 13 1016.9 1016.7 0.0
23/10:00am 21.5 19.0 10.9 51 5.8 SSW 15 22 8 12 1017.0 1016.8 0.0
23/09:30am 21.1 19.1 11.4 54 5.4 S 13 20 7 11 1017.0 1016.8 0.0
23/09:00am 20.6 18.8 11.0 54 5.3 SSW 11 20 6 11 1017.0 1016.8 0.0
23/08:30am 19.8 18.5 11.3 58 4.7 SSE 9 19 5 10 1017.2 1017.0 0.0
23/08:00am 18.9 17.4 10.5 58 4.5 SSE 9 13 5 7 1017.2 1017.0 0.0
23/07:30am 18.6 17.6 10.9 61 4.2 SE 7 11 4 6 1017.0 1016.8 0.0
23/07:00am 16.6 16.8 10.7 68 3.1 CALM 0 6 0 3 1016.8 1016.6 0.0
23/06:30am 14.4 15.2 12.6 89 1.0 CALM 0 0 0 0 1016.3 1016.1 0.0
23/06:00am 12.8 13.1 10.9 88 1.0 CALM 0 0 0 0 1015.9 1015.7 0.0
23/05:30am 13.3 13.5 10.7 84 1.4 CALM 0 0 0 0 1015.5 1015.3 0.0
23/05:00am 14.0 14.4 11.2 83 1.5 CALM 0 0 0 0 1015.2 1015.0 0.0
23/04:30am 14.8 13.9 10.8 77 2.1 SSW 6 9 3 5 1014.8 1014.6 0.0
23/04:00am 15.3 14.0 10.1 71 2.7 S 7 11 4 6 1014.6 1014.4 0.0
23/03:30am 15.4 14.4 10.2 71 2.7 SSE 6 9 3 5 1014.3 1014.1 0.0
23/03:00am 16.1 14.6 10.4 69 3.0 SSE 9 13 5 7 1014.3 1014.1 0.0
23/02:30am 16.4 14.1 10.3 67 3.2 S 13 20 7 11 1014.2 1014.0 0.0
23/02:00am 16.7 14.3 10.1 65 3.5 S 13 20 7 11 1014.3 1014.1 0.0
23/01:30am 17.0 14.4 10.8 67 3.3 S 15 24 8 13 1014.3 1014.1 0.0
23/01:00am 17.4 15.8 11.4 68 3.3 SSW 11 20 6 11 1014.2 1014.0 0.0
23/12:30am 17.6 15.6 11.4 67 3.4 SSW 13 24 7 13 1014.1 1013.9 0.0
23/12:00am 17.8 15.8 11.4 66 3.5 SSW 13 22 7 12 1014.0 1013.8 0.0
 
Date/Time
WST
Temp
°C
App
Temp
°C
Dew
Point
°C
Rel
Hum
%
Delta-T
°C
Wind Press
QNH
hPa
Press
MSL
hPa
Rain since
9am
mm
Dir  Spd
km/h
Gust
km/h
Spd
kts
Gust
kts
22/11:30pm 18.0 16.4 11.6 66 3.5 SSW 11 20 6 11 1013.9 1013.7 0.0
22/11:00pm 18.2 16.5 11.3 64 3.8 SSW 11 20 6 11 1013.9 1013.7 0.0
22/10:30pm 18.3 16.3 11.4 64 3.8 SSW 13 22 7 12 1014.1 1013.9 0.0
22/10:00pm 18.6 15.8 11.4 63 3.9 SSW 17 28 9 15 1014.0 1013.8 0.0
22/09:30pm 18.6 15.4 11.4 63 3.9 SSW 19 30 10 16 1013.8 1013.6 0.0
22/09:00pm 18.9 16.4 12.4 66 3.6 SSW 17 35 9 19 1013.5 1013.3 0.0
22/08:30pm 18.8 16.5 11.9 64 3.8 SW 15 22 8 12 1013.2 1013.0 0.0
22/08:00pm 19.0 15.8 11.8 63 4.0 SW 20 35 11 19 1012.9 1012.7 0.0
22/07:30pm 19.2 16.2 12.0 63 4.0 SSW 19 35 10 19 1012.8 1012.6 0.0
22/07:00pm 19.5 16.1 11.3 59 4.5 SW 20 39 11 21 1012.5 1012.3 0.0
22/06:30pm 20.3 17.1 11.8 58 4.7 SW 20 37 11 20 1012.0 1011.9 0.0
22/06:00pm 20.6 17.5 12.3 59 4.7 SW 20 39 11 21 1011.4 1011.3 0.0
22/05:30pm 21.2 18.0 11.8 55 5.3 SW 20 37 11 20 1011.1 1011.0 0.0
22/05:00pm 22.1 18.9 11.8 52 5.8 SW 20 32 11 17 1010.9 1010.8 0.0
22/04:30pm 21.9 17.9 11.9 53 5.6 SW 24 35 13 19 1010.8 1010.7 0.0
22/04:00pm 22.8 19.6 11.8 50 6.2 SW 20 35 11 19 1010.7 1010.6 0.0
22/03:30pm 22.8 19.2 11.8 50 6.2 SW 22 37 12 20 1010.8 1010.7 0.0
22/03:00pm 23.1 19.4 11.5 48 6.5 SW 22 37 12 20 1010.8 1010.7 0.0
22/02:30pm 23.4 20.1 10.8 45 7.0 SSW 19 33 10 18 1011.0 1010.9 0.0
22/02:00pm 23.9 20.6 11.6 46 6.9 SSW 20 39 11 21 1011.2 1011.1 0.0
22/01:30pm 23.1 18.4 12.1 50 6.2 SSW 28 41 15 22 1011.2 1011.1 0.0
22/01:00pm 23.7 20.2 13.3 52 6.0 SW 24 44 13 24 1010.9 1010.8 0.0
22/12:30pm 23.2 19.9 13.9 56 5.4 SSW 24 41 13 22 1010.9 1010.8 0.0
22/12:00pm 23.3 20.0 12.9 52 6.0 SW 22 39 12 21 1010.8 1010.7 0.0
22/11:30am 23.2 19.4 13.7 55 5.5 SSW 26 46 14 25 1010.7 1010.6 0.0
22/11:00am 24.1 21.5 14.8 56 5.5 SSW 22 41 12 22 1010.7 1010.6 0.0
22/10:30am 23.4 21.2 14.9 59 5.1 SW 20 30 11 16 1010.6 1010.5 0.0
22/10:00am 23.5 21.3 14.5 57 5.3 SSW 19 33 10 18 1010.4 1010.3 0.0
22/09:30am 23.1 21.8 14.7 59 5.0 SSW 15 30 8 16 1010.3 1010.2 0.0
22/09:00am 22.2 20.7 14.3 61 4.6 SSW 15 28 8 15 1010.2 1010.1 0.0
22/08:30am 21.7 20.2 14.1 62 4.4 SSW 15 32 8 17 1010.3 1010.2 0.0
22/08:00am 19.9 17.3 13.8 68 3.5 S 20 33 11 18 1010.3 1010.2 0.0
22/07:30am 19.2 16.7 13.4 69 3.3 S 19 30 10 16 1010.2 1010.1 0.0
22/07:00am 18.4 16.1 13.1 71 3.0 S 17 24 9 13 1010.0 1009.9 0.0
22/06:30am 17.6 16.6 13.3 76 2.4 S 11 24 6 13 1009.6 1009.5 0.0
22/06:00am 17.0 15.9 13.1 78 2.2 S 11 20 6 11 1009.3 1009.2 0.0
22/05:30am 16.9 15.1 13.2 79 2.1 S 15 28 8 15 1008.9 1008.8 0.0
22/05:00am 16.9 15.4 13.2 79 2.1 S 13 22 7 12 1008.8 1008.7 0.0
22/04:30am 17.2 15.9 13.7 80 2.0 S 13 20 7 11 1008.6 1008.5 0.0
22/04:00am 17.5 17.1 14.2 81 1.9 S 9 19 5 10 1008.4 1008.3 0.0
22/03:30am 18.0 17.7 14.3 79 2.1 SSW 9 19 5 10 1008.2 1008.1 0.0
22/03:00am 18.5 17.4 14.4 77 2.4 SSW 13 20 7 11 1008.0 1007.9 0.0
22/02:30am 18.9 17.2 14.6 76 2.5 SSW 17 26 9 14 1007.7 1007.6 0.0
22/02:00am 19.3 18.0 14.8 75 2.6 SSW 15 24 8 13 1007.7 1007.6 0.0
22/01:30am 19.5 18.7 15.0 75 2.6 SSW 13 20 7 11 1007.9 1007.8 0.0
22/01:00am 19.7 20.2 15.6 77 2.4 SSW 7 13 4 7 1008.1 1008.0 0.0
22/12:30am 20.1 19.9 15.7 76 2.6 SSW 11 22 6 12 1008.1 1008.0 0.0
22/12:00am 20.3 20.0 15.5 74 2.9 SSW 11 17 6 9 1008.2 1008.1 0.0
 
Date/Time
WST
Temp
°C
App
Temp
°C
Dew
Point
°C
Rel
Hum
%
Delta-T
°C
Wind Press
QNH
hPa
Press
MSL
hPa
Rain since
9am
mm
Dir  Spd
km/h
Gust
km/h
Spd
kts
Gust
kts
21/11:30pm 20.4 19.8 15.6 74 2.9 SSW 13 20 7 11 1008.4 1008.3 0.0
21/11:00pm 20.6 20.4 15.8 74 2.9 SSW 11 22 6 12 1008.6 1008.5 0.0
21/10:30pm 20.7 20.2 15.9 74 2.9 SSW 13 26 7 14 1008.4 1008.3 0.0
21/10:00pm 20.8 21.2 16.2 75 2.8 SSW 9 19 5 10 1008.3 1008.2 0.0
21/09:30pm 20.8 20.7 16.0 74 2.9 SSW 11 19 6 10 1008.3 1008.2 0.0
21/09:00pm 21.0 21.0 16.2 74 2.9 SW 11 19 6 10 1008.1 1008.0 0.0
21/08:30pm 21.2 20.9 16.4 74 2.9 SW 13 24 7 13 1007.9 1007.8 0.0
21/08:00pm 21.3 21.0 16.5 74 2.9 SW 13 24 7 13 1007.7 1007.6 0.0
21/07:30pm 21.6 20.9 16.3 72 3.2 SW 15 30 8 16 1007.4 1007.3 0.0
21/07:00pm 22.2 20.4 16.0 68 3.7 SW 20 33 11 18 1007.1 1007.0 0.0
21/06:30pm 23.0 21.0 15.6 63 4.4 SW 20 35 11 19 1006.8 1006.7 0.0
21/06:00pm 23.9 21.7 14.9 57 5.4 SW 20 35 11 19 1006.4 1006.3 0.0
21/05:30pm 24.6 21.6 14.7 54 5.9 SW 24 37 13 20 1006.0 1005.9 0.0
21/05:00pm 25.9 23.6 14.7 50 6.7 SSW 20 33 11 18 1005.9 1005.8 0.0
21/04:30pm 26.7 24.5 14.8 48 7.2 SSW 20 33 11 18 1005.6 1005.5 0.0
21/04:00pm 27.6 25.9 14.6 45 7.9 SW 17 32 9 17 1005.6 1005.5 0.0
21/03:30pm 28.5 25.7 13.2 39 9.1 SW 20 32 11 17 1005.4 1005.3 0.0
21/03:00pm 29.3 26.9 12.7 36 9.8 WSW 17 28 9 15 1005.5 1005.4 0.0
21/02:30pm 30.2 28.8 15.5 41 9.1 WSW 17 26 9 14 1005.5 1005.4 0.0
21/02:00pm 31.3 30.0 14.9 37 10.1 WSW 15 28 8 15 1005.5 1005.4 0.0
21/01:30pm 30.8 28.8 14.0 36 10.2 WSW 17 26 9 14 1005.9 1005.8 0.0

Latest Capital City Observations: Canberra | Sydney | Melbourne | Brisbane | Adelaide | Perth | Hobart | Darwin

Other Formats:

Comma delimited format used in spreadsheet applications
http://www.bom.gov.au/fwo/IDW60901/IDW60901.94608.axf

JavaScript Object Notation format (JSON) in row-major order
http://www.bom.gov.au/fwo/IDW60901/IDW60901.94608.json